Time;durP1;ratioP1;P1;durP2;ratioP2;P2;SDS_P1;SDS_P2;PMS_P1;PMS_P2;Temp;Humidity;BMP_temperature;BMP_pressure;BME280_temperature;BME280_humidity;BME280_pressure;Samples;Min_cycle;Max_cycle;Signal;HPM_P1;HPM_P2
2022/10/01 00:00:12;;;;;;;8.90;6.55;;;9.20;99.90;;;8.07;100.00;97087.44;5090620;28;20402;-76
2022/10/01 00:02:39;;;;;;;10.20;6.65;;;9.20;99.90;;;8.06;100.00;97088.47;5090265;28;20906;-76
2022/10/01 00:05:06;;;;;;;11.77;7.50;;;9.20;99.90;;;8.03;100.00;97091.63;5090703;28;20393;-77
2022/10/01 00:07:37;;;;;;;10.48;7.15;;;9.20;99.90;;;8.04;100.00;97092.41;5090464;28;20764;-76
2022/10/01 00:10:04;;;;;;;12.80;6.80;;;9.10;99.90;;;7.99;100.00;97090.50;5090618;28;20406;-76
2022/10/01 00:12:30;;;;;;;11.32;7.05;;;9.10;99.90;;;7.99;100.00;97092.31;5090087;28;20497;-76
2022/10/01 00:14:56;;;;;;;10.50;6.82;;;9.10;99.90;;;7.99;100.00;97081.78;5090067;28;20496;-76
2022/10/01 00:17:23;;;;;;;10.77;7.35;;;9.10;99.90;;;8.02;100.00;97079.47;5090406;28;20488;-76
2022/10/01 00:19:49;;;;;;;9.40;6.70;;;9.10;99.90;;;8.04;100.00;97074.75;5090532;28;20393;-76
2022/10/01 00:22:17;;;;;;;13.68;6.78;;;9.10;99.90;;;8.05;100.00;97078.19;5090296;28;20917;-76
2022/10/01 00:24:44;;;;;;;8.63;6.15;;;9.10;99.90;;;8.05;100.00;97080.81;5089968;28;20398;-76
2022/10/01 00:27:11;;;;;;;11.70;6.93;;;9.10;99.90;;;8.03;100.00;97083.72;5090322;28;20437;-76
2022/10/01 00:29:37;;;;;;;11.75;7.20;;;9.10;99.90;;;8.02;100.00;97084.75;5090383;28;20716;-75
2022/10/01 00:32:03;;;;;;;9.82;6.88;;;9.10;99.90;;;8.01;100.00;97084.97;5090260;28;20919;-76
2022/10/01 00:34:30;;;;;;;9.43;6.60;;;9.10;99.90;;;8.01;100.00;97084.97;5089822;28;20720;-76
2022/10/01 00:36:56;;;;;;;8.95;6.90;;;9.10;99.90;;;7.99;100.00;97074.69;5090236;28;20405;-76
2022/10/01 00:39:22;;;;;;;10.27;7.13;;;9.10;99.90;;;7.99;100.00;97071.25;5090243;28;20493;-76
2022/10/01 00:41:49;;;;;;;8.57;6.50;;;9.10;99.90;;;7.97;100.00;97076.75;5090320;28;20439;-76
2022/10/01 00:44:34;;;;;;;11.23;6.72;;;9.10;99.90;;;7.93;100.00;97070.38;5089747;28;20876;-76
2022/10/01 00:47:11;;;;;;;10.60;6.85;;;9.00;99.90;;;7.96;100.00;97072.53;5090307;28;20933;-76
2022/10/01 00:49:41;;;;;;;9.20;6.50;;;9.00;99.90;;;7.95;100.00;97081.47;5090177;28;20880;-75
2022/10/01 00:52:14;;;;;;;8.57;6.70;;;9.00;99.90;;;7.96;100.00;97087.56;5089973;28;20410;-76
2022/10/01 00:54:46;;;;;;;7.93;6.10;;;9.00;99.90;;;7.93;100.00;97095.94;5089651;28;20418;-76
2022/10/01 00:57:15;;;;;;;7.75;6.45;;;9.00;99.90;;;7.89;100.00;97103.53;5090139;28;20763;-76
2022/10/01 00:59:42;;;;;;;12.07;6.53;;;9.00;99.90;;;7.86;100.00;97098.72;5090137;28;20482;-75
2022/10/01 01:02:09;;;;;;;10.83;6.70;;;9.00;99.90;;;7.83;100.00;97091.28;5090179;28;20484;-76
2022/10/01 01:04:38;;;;;;;11.50;6.50;;;8.90;99.90;;;7.83;100.00;97086.03;5089397;28;20406;-76
2022/10/01 01:07:07;;;;;;;8.82;6.43;;;8.90;99.90;;;7.79;100.00;97084.94;5090101;28;20393;-76
2022/10/01 01:09:38;;;;;;;9.85;6.40;;;8.90;99.90;;;7.80;100.00;97083.09;5089970;28;20398;-75
2022/10/01 01:12:18;;;;;;;10.45;6.32;;;8.90;99.90;;;7.77;100.00;97082.53;5089948;28;20394;-76
2022/10/01 01:14:58;;;;;;;8.82;6.30;;;8.90;99.90;;;7.75;100.00;97078.53;5089563;28;20787;-75
2022/10/01 01:17:32;;;;;;;7.25;6.07;;;8.90;99.90;;;7.72;100.00;97079.81;5089860;28;20423;-76
2022/10/01 01:20:19;;;;;;;13.57;6.68;;;8.80;99.90;;;7.70;100.00;97079.25;5091210;28;20530;-76
2022/10/01 01:22:59;;;;;;;9.80;5.97;;;8.80;99.90;;;7.67;100.00;97077.09;5093149;28;20421;-76
2022/10/01 01:25:35;;;;;;;8.20;6.38;;;8.80;99.90;;;7.68;100.00;97075.25;5093670;28;20925;-76
2022/10/01 01:28:13;;;;;;;8.35;5.97;;;8.80;99.90;;;7.66;100.00;97074.72;5093681;28;20397;-77
2022/10/01 01:30:41;;;;;;;8.30;6.25;;;8.70;99.90;;;7.67;100.00;97071.03;5093756;28;20451;-76
2022/10/01 01:33:14;;;;;;;11.55;6.72;;;8.70;99.90;;;7.67;100.00;97063.13;5092832;28;20417;-76
2022/10/01 01:35:47;;;;;;;8.65;6.47;;;8.70;99.90;;;7.70;100.00;97052.91;5093482;28;20402;-75
2022/10/01 01:38:19;;;;;;;8.77;6.35;;;8.70;99.90;;;7.75;100.00;97052.97;5093473;28;20471;-76
2022/10/01 01:40:50;;;;;;;11.13;6.72;;;8.80;99.90;;;7.76;100.00;97046.66;5093386;28;20391;-75
2022/10/01 01:43:23;;;;;;;10.20;6.80;;;8.80;99.90;;;7.82;100.00;97038.88;5091521;28;20480;-76
2022/10/01 01:45:54;;;;;;;9.10;6.30;;;8.90;99.90;;;7.83;100.00;97032.53;5093404;28;20430;-76
2022/10/01 01:48:23;;;;;;;9.60;6.82;;;8.90;99.90;;;7.84;100.00;97034.13;5093366;28;20400;-76
2022/10/01 01:50:55;;;;;;;10.38;6.63;;;8.90;99.90;;;7.85;100.00;97027.81;5093175;28;20405;-75
2022/10/01 01:53:22;;;;;;;11.75;6.63;;;8.90;99.90;;;7.92;100.00;97026.63;5092505;28;20504;-76
2022/10/01 01:55:48;;;;;;;8.37;6.40;;;9.00;99.90;;;7.93;100.00;97022.13;5093082;28;20394;-76
2022/10/01 01:58:15;;;;;;;8.50;6.60;;;9.00;99.90;;;7.98;100.00;97015.09;5108681;28;20409;-76
2022/10/01 02:00:42;;;;;;;10.30;7.13;;;9.00;99.90;;;7.99;100.00;97000.88;5093052;28;20889;-77
2022/10/01 02:03:10;;;;;;;9.37;6.20;;;9.10;99.90;;;8.01;100.00;97008.53;5092436;28;20443;-76
2022/10/01 02:05:45;;;;;;;9.13;6.30;;;9.10;99.90;;;8.02;100.00;97015.41;5092835;28;20492;-75
2022/10/01 02:08:29;;;;;;;8.60;6.40;;;9.10;99.90;;;8.02;100.00;97010.16;5093130;28;20394;-76
2022/10/01 02:11:23;;;;;;;8.35;6.40;;;9.10;99.90;;;8.02;100.00;97004.88;5092841;28;20918;-76
2022/10/01 02:14:06;;;;;;;9.93;6.60;;;9.10;99.90;;;8.02;100.00;97005.69;5092097;28;20414;-76
2022/10/01 02:16:47;;;;;;;8.93;6.07;;;9.10;99.90;;;8.03;100.00;97014.38;5092710;28;20879;-76
2022/10/01 02:19:25;;;;;;;10.70;6.60;;;9.10;99.90;;;8.05;100.00;97007.81;5092505;28;20966;-75
2022/10/01 02:21:58;;;;;;;9.00;6.63;;;9.10;99.90;;;8.09;100.00;97006.28;5092519;28;20390;-76
2022/10/01 02:24:33;;;;;;;7.47;5.90;;;9.10;99.90;;;8.12;100.00;96992.59;5092022;28;20879;-76
2022/10/01 02:27:07;;;;;;;8.88;6.47;;;9.20;99.90;;;8.18;100.00;96990.06;5092474;28;20390;-76
2022/10/01 02:29:34;;;;;;;9.38;6.40;;;9.20;99.90;;;8.18;100.00;96987.41;5092584;28;20394;-76
2022/10/01 02:32:02;;;;;;;8.80;5.72;;;9.20;99.90;;;8.20;100.00;96994.03;5091926;28;20493;-76
2022/10/01 02:34:31;;;;;;;8.07;6.15;;;9.20;99.90;;;8.27;100.00;96989.34;5091853;28;20731;-76
2022/10/01 02:37:00;;;;;;;8.33;5.83;;;9.30;99.90;;;8.29;100.00;96997.81;5092304;28;20394;-76
2022/10/01 02:39:29;;;;;;;7.05;5.60;;;9.30;99.90;;;8.32;100.00;97002.66;5092251;28;20845;-76
2022/10/01 02:41:57;;;;;;;9.27;5.80;;;9.40;99.90;;;8.33;100.00;96988.44;5092160;28;20421;-75
2022/10/01 02:44:31;;;;;;;6.88;5.30;;;9.40;99.90;;;8.38;100.00;96995.59;5091562;28;20398;-75
2022/10/01 02:47:05;;;;;;;7.80;5.50;;;9.40;99.90;;;8.36;100.00;96993.19;5092098;28;20406;-77
2022/10/01 02:49:31;;;;;;;6.40;4.97;;;9.40;99.90;;;8.35;100.00;96991.59;5091927;28;20389;-76
2022/10/01 02:52:05;;;;;;;8.13;5.38;;;9.40;99.90;;;8.34;100.00;96984.75;5091908;28;20402;-75
2022/10/01 02:54:37;;;;;;;5.78;4.85;;;9.40;99.90;;;8.32;100.00;96984.19;5091379;28;20539;-76
2022/10/01 02:57:22;;;;;;;5.28;4.70;;;9.40;99.90;;;8.33;100.00;96980.53;5091955;28;20432;-76
2022/10/01 02:59:47;;;;;;;7.88;4.97;;;9.40;99.90;;;8.30;100.00;96980.97;5091883;28;20401;-75
2022/10/01 03:02:15;;;;;;;6.32;5.18;;;9.30;99.90;;;8.33;100.00;96975.25;5091614;28;20398;-76
2022/10/01 03:04:41;;;;;;;7.70;4.85;;;9.30;99.90;;;8.30;100.00;96975.69;5091498;22;20427;-75
2022/10/01 03:07:07;;;;;;;6.93;5.00;;;9.30;99.90;;;8.27;100.00;96976.16;5070354;28;20484;-75
2022/10/01 03:09:35;;;;;;;5.82;4.47;;;9.30;99.90;;;8.20;100.00;96970.28;5070786;28;20407;-75
2022/10/01 03:12:02;;;;;;;5.97;4.53;;;9.20;99.90;;;8.23;100.00;96969.00;5071337;28;20510;-74
2022/10/01 03:14:28;;;;;;;5.88;4.75;;;9.20;99.90;;;8.21;100.00;96979.78;5057340;28;20428;-75
2022/10/01 03:16:54;;;;;;;4.95;4.35;;;9.20;99.90;;;8.22;100.00;96989.31;5051441;28;20401;-75
2022/10/01 03:19:21;;;;;;;7.28;4.97;;;9.30;99.90;;;8.27;100.00;96984.09;5051251;28;20397;-75
2022/10/01 03:21:47;;;;;;;7.45;4.88;;;9.30;99.90;;;8.25;100.00;96983.56;5049915;28;20410;-75
2022/10/01 03:24:13;;;;;;;5.22;4.43;;;9.30;99.90;;;8.24;100.00;96973.25;5050670;28;20477;-75
2022/10/01 03:26:38;;;;;;;6.27;4.47;;;9.30;99.90;;;8.22;100.00;96970.84;5051144;28;21075;-75
2022/10/01 03:29:05;;;;;;;8.25;4.40;;;9.30;99.90;;;8.23;100.00;96969.81;5051090;28;20398;-75
2022/10/01 03:31:31;;;;;;;6.47;4.28;;;9.30;99.90;;;8.20;100.00;96972.13;5051043;28;20394;-75
2022/10/01 03:33:59;;;;;;;9.13;4.18;;;9.20;99.90;;;8.21;100.00;96965.81;5050340;28;20464;-75
2022/10/01 03:36:26;;;;;;;5.35;4.40;;;9.20;99.90;;;8.19;100.00;96963.44;5051084;28;20398;-75
2022/10/01 03:38:52;;;;;;;6.00;4.30;;;9.20;99.90;;;8.21;100.00;96963.19;5050913;28;20492;-75
2022/10/01 03:41:18;;;;;;;4.93;4.30;;;9.20;99.90;;;8.19;100.00;96966.09;5050973;28;20493;-76
2022/10/01 03:43:44;;;;;;;5.53;3.77;;;9.20;99.90;;;8.16;100.00;96962.09;5049642;28;20899;-75
2022/10/01 03:46:13;;;;;;;7.22;3.85;;;9.20;99.90;;;8.14;100.00;96948.34;5050822;28;20412;-76
2022/10/01 03:48:39;;;;;;;5.20;3.97;;;9.20;99.90;;;8.11;100.00;96948.84;5050787;28;20406;-76
2022/10/01 03:51:05;;;;;;;5.53;3.67;;;9.20;99.90;;;8.10;100.00;96949.09;5050789;28;20413;-75
2022/10/01 03:53:32;;;;;;;5.93;3.95;;;9.10;99.90;;;8.21;100.00;96947.38;5050031;28;20501;-75
2022/10/01 03:55:59;;;;;;;4.60;3.65;;;9.20;99.90;;;8.21;100.00;96940.25;5050523;28;20420;-75
2022/10/01 03:58:25;;;;;;;3.70;3.23;;;9.20;99.90;;;8.21;100.00;96942.09;5050794;28;20490;-75
2022/10/01 04:00:54;;;;;;;3.88;3.17;;;9.30;99.90;;;8.17;100.00;96933.88;5050556;28;20401;-75
2022/10/01 04:03:20;;;;;;;4.53;3.67;;;9.20;99.90;;;8.14;100.00;96944.91;5049707;28;20874;-75
2022/10/01 04:05:47;;;;;;;6.20;3.40;;;9.20;99.90;;;8.12;100.00;96936.44;5050648;28;20405;-75
2022/10/01 04:08:13;;;;;;;4.15;3.53;;;9.20;99.90;;;8.17;100.00;96933.88;5050494;28;20410;-75
2022/10/01 04:10:41;;;;;;;4.03;2.88;;;9.20;99.90;;;8.16;100.00;96927.81;5050378;28;20410;-75
2022/10/01 04:13:08;;;;;;;4.40;3.30;;;9.20;99.90;;;8.16;100.00;96921.75;5049704;28;20906;-75
2022/10/01 04:15:34;;;;;;;4.10;3.03;;;9.20;99.90;;;8.14;100.00;96921.19;5050307;28;20408;-75
2022/10/01 04:18:04;;;;;;;4.22;3.10;;;9.20;99.90;;;8.14;100.00;96905.38;5050306;28;20398;-75
2022/10/01 04:20:30;;;;;;;4.65;3.63;;;9.20;99.90;;;8.19;100.00;96902.81;5050187;28;20409;-75
2022/10/01 04:22:56;;;;;;;3.92;3.20;;;9.20;99.90;;;8.16;100.00;96908.56;5049637;28;20462;-75
2022/10/01 04:25:22;;;;;;;4.57;2.80;;;9.20;99.90;;;8.18;100.00;96911.75;5050111;28;20409;-75
2022/10/01 04:27:58;;;;;;;4.23;2.60;;;9.20;99.90;;;8.19;100.00;96916.00;5050321;28;20402;-75
2022/10/01 04:30:25;;;;;;;4.13;3.00;;;9.20;99.90;;;8.21;100.00;96913.88;5050194;28;20397;-75
2022/10/01 04:32:51;;;;;;;7.82;3.22;;;9.30;99.90;;;8.21;100.00;96915.72;5049484;28;20516;-74
2022/10/01 04:35:17;;;;;;;3.83;3.00;;;9.30;99.90;;;8.22;100.00;96912.84;5048892;28;20600;-75
2022/10/01 04:37:43;;;;;;;3.35;3.03;;;9.20;99.90;;;8.22;100.00;96915.47;5050176;28;20405;-75
2022/10/01 04:40:09;;;;;;;3.85;2.80;;;9.30;99.90;;;8.20;100.00;96917.56;5050056;28;20405;-75
2022/10/01 04:42:39;;;;;;;6.15;3.10;;;9.20;99.90;;;8.21;100.00;96913.09;5049843;28;20493;-75
2022/10/01 04:45:09;;;;;;;4.22;2.60;;;9.30;99.90;;;8.19;100.00;96912.56;5049842;28;20763;-75
2022/10/01 04:47:35;;;;;;;3.45;2.88;;;9.20;99.90;;;8.19;100.00;96915.19;5049840;28;20413;-74
2022/10/01 04:50:01;;;;;;;3.15;2.85;;;9.20;99.90;;;8.19;100.00;96902.00;5050211;28;20508;-75
2022/10/01 04:52:26;;;;;;;3.53;3.00;;;9.20;99.90;;;8.16;100.00;96911.19;5049809;28;20412;-75
2022/10/01 04:54:52;;;;;;;3.17;2.63;;;9.20;99.90;;;8.17;100.00;96904.91;5052274;28;20459;-75
2022/10/01 04:57:20;;;;;;;4.35;2.85;;;9.20;99.90;;;8.16;100.00;96906.72;5053899;28;20890;-75
2022/10/01 04:59:46;;;;;;;2.85;2.60;;;9.20;99.90;;;8.17;100.00;96904.91;5054024;28;20412;-75
2022/10/01 05:02:14;;;;;;;6.07;4.05;;;9.20;99.90;;;8.26;100.00;96905.25;5053764;28;20402;-75
2022/10/01 05:04:40;;;;;;;3.17;2.53;;;9.20;99.90;;;8.27;100.00;96906.84;5053096;28;20413;-76
2022/10/01 05:07:06;;;;;;;5.13;2.40;;;9.30;99.90;;;8.30;100.00;96906.34;5053761;28;20906;-75
2022/10/01 05:09:32;;;;;;;6.50;2.90;;;9.30;99.90;;;8.35;100.00;96901.94;5053792;28;20409;-75
2022/10/01 05:11:57;;;;;;;6.00;2.90;;;9.40;99.90;;;8.39;100.00;96903.03;5053706;28;20431;-75
2022/10/01 05:14:24;;;;;;;3.70;2.70;;;9.40;99.90;;;8.47;100.00;96905.25;5053031;28;20429;-75
2022/10/01 05:16:50;;;;;;;3.00;2.50;;;9.40;99.90;;;8.47;100.00;96907.88;5053574;28;20450;-75
2022/10/01 05:19:17;;;;;;;2.60;2.33;;;9.40;99.90;;;8.49;100.00;96910.28;5053616;28;20409;-75
2022/10/01 05:21:43;;;;;;;4.50;2.83;;;9.50;99.90;;;8.50;100.00;96911.84;5053551;28;20401;-75
2022/10/01 05:24:09;;;;;;;4.22;2.80;;;9.50;99.90;;;8.60;100.00;96908.50;5052864;28;20424;-75
2022/10/01 05:26:37;;;;;;;2.97;2.43;;;9.50;99.90;;;8.55;100.00;96906.63;5053578;28;20404;-75
2022/10/01 05:29:03;;;;;;;4.18;2.85;;;9.60;99.90;;;8.55;100.00;96909.28;5053426;28;20488;-75
2022/10/01 05:31:29;;;;;;;6.45;2.67;;;9.50;99.90;;;8.54;100.00;96905.84;5053257;28;20405;-75
2022/10/01 05:33:55;;;;;;;3.40;2.45;;;9.50;99.90;;;8.55;100.00;96906.63;5052660;28;20417;-75
2022/10/01 05:36:23;;;;;;;3.30;2.40;;;9.60;99.90;;;8.56;100.00;96897.69;5053264;28;20403;-75
2022/10/01 05:38:51;;;;;;;4.32;2.45;;;9.60;99.90;;;8.54;100.00;96897.91;5051346;28;20421;-76
2022/10/01 05:41:17;;;;;;;2.53;2.22;;;9.50;99.90;;;8.49;100.00;96902.38;5053040;28;20416;-76
2022/10/01 05:43:43;;;;;;;2.47;2.28;;;9.50;99.90;;;8.53;100.00;96908.72;5052538;28;20406;-76
2022/10/01 05:46:09;;;;;;;4.00;1.92;;;9.50;99.90;;;8.54;100.00;96899.75;5053100;28;20397;-76
2022/10/01 05:48:36;;;;;;;4.57;2.42;;;9.50;99.90;;;8.54;100.00;96895.28;5053044;28;20412;-75
2022/10/01 05:51:05;;;;;;;3.78;2.55;;;9.50;99.90;;;8.56;100.00;96891.59;5053056;28;20925;-75
2022/10/01 05:53:33;;;;;;;4.72;2.38;;;9.60;99.90;;;8.59;100.00;96878.69;5052280;28;20483;-75
2022/10/01 05:56:01;;;;;;;3.42;2.38;;;9.60;99.90;;;8.62;100.00;96870.28;5052801;28;20405;-75
2022/10/01 05:58:27;;;;;;;4.60;2.30;;;9.60;99.90;;;8.56;100.00;96865.22;5052870;28;20490;-75
2022/10/01 06:00:54;;;;;;;3.50;2.33;;;9.50;99.90;;;8.65;100.00;96866.34;5052725;28;20492;-75
2022/10/01 06:03:20;;;;;;;3.50;2.17;;;9.60;99.90;;;8.72;100.00;96865.09;5052193;28;20556;-76
2022/10/01 06:05:46;;;;;;;3.38;2.20;;;9.70;99.90;;;8.72;100.00;96851.13;5052048;28;20410;-75
2022/10/01 06:08:13;;;;;;;2.45;2.22;;;9.70;99.90;;;8.67;100.00;96845.78;5052683;28;20397;-76
2022/10/01 06:10:40;;;;;;;3.97;2.10;;;9.70;99.90;;;8.69;100.00;96836.56;5052617;28;20463;-76
2022/10/01 06:13:07;;;;;;;8.18;2.30;;;9.60;99.90;;;8.69;100.00;96833.94;5051890;28;20508;-76
2022/10/01 06:15:38;;;;;;;3.53;2.58;;;9.70;99.90;;;8.64;100.00;96835.75;5051245;28;20903;-76
2022/10/01 06:18:07;;;;;;;5.40;2.23;;;9.70;99.90;;;8.60;100.00;96832.81;5052579;28;20768;-76
2022/10/01 06:20:34;;;;;;;2.80;2.50;;;9.60;99.90;;;8.56;100.00;96825.66;5052418;28;20408;-76
2022/10/01 06:23:00;;;;;;;5.45;3.40;;;9.60;99.90;;;8.54;100.00;96828.53;5051925;28;20416;-75
2022/10/01 06:25:28;;;;;;;4.88;2.80;;;9.50;99.90;;;8.50;100.00;96822.94;5052460;28;20879;-76
2022/10/01 06:27:58;;;;;;;2.80;2.50;;;9.50;99.90;;;8.55;100.00;96827.50;5052430;28;20451;-76
2022/10/01 06:30:27;;;;;;;5.63;2.83;;;9.60;99.90;;;8.52;100.00;96822.72;5052304;28;20893;-76
2022/10/01 06:32:57;;;;;;;4.43;2.90;;;9.50;99.90;;;8.53;100.00;96826.94;5051541;28;20424;-76
2022/10/01 06:35:23;;;;;;;5.43;2.78;;;9.50;99.90;;;8.50;100.00;96822.94;5052265;28;20413;-75
2022/10/01 06:37:50;;;;;;;4.13;2.90;;;9.50;99.90;;;8.50;100.00;96828.22;5052131;28;20405;-75
2022/10/01 06:40:16;;;;;;;4.47;3.27;;;9.50;99.90;;;8.44;100.00;96820.53;5052152;28;20401;-76
2022/10/01 06:42:46;;;;;;;4.15;3.15;;;9.50;99.90;;;8.42;100.00;96822.66;5051734;28;20455;-75
2022/10/01 06:45:14;;;;;;;4.60;2.72;;;9.40;99.90;;;8.42;100.00;96822.66;5051922;28;20397;-76
2022/10/01 06:47:40;;;;;;;5.28;2.95;;;9.40;99.90;;;8.43;100.00;96824.22;5051957;28;20405;-75
2022/10/01 06:50:07;;;;;;;5.00;2.95;;;9.40;99.90;;;8.43;100.00;96822.38;5051940;28;20493;-75
2022/10/01 06:52:48;;;;;;;3.67;2.80;;;9.40;99.90;;;8.44;100.00;96820.53;5051689;28;20412;-75
2022/10/01 06:55:15;;;;;;;4.32;3.05;;;9.40;99.90;;;8.45;100.00;96827.41;5051716;28;21069;-75
2022/10/01 06:57:41;;;;;;;3.25;2.78;;;9.50;99.90;;;8.48;100.00;96832.19;5051320;28;20479;-74
2022/10/01 07:00:08;;;;;;;4.85;3.38;;;9.50;99.90;;;8.48;100.00;96829.56;5050109;28;20409;-78
2022/10/01 07:02:35;;;;;;;3.80;2.90;;;9.50;99.90;;;8.51;100.00;96823.75;5051291;28;20771;-78
2022/10/01 07:05:01;;;;;;;7.22;3.15;;;9.50;99.90;;;8.50;100.00;96838.78;5065849;28;20403;-78
2022/10/01 07:07:29;;;;;;;3.90;3.35;;;9.50;99.90;;;8.52;100.00;96826.16;5071593;28;20486;-79
2022/10/01 07:09:56;;;;;;;5.47;3.20;;;9.50;99.90;;;8.56;100.00;96829.09;5071512;28;20403;-80
2022/10/01 07:12:22;;;;;;;6.63;3.10;;;9.50;99.90;;;8.43;100.00;96826.84;5071300;28;20426;-80
2022/10/01 07:14:47;;;;;;;4.30;2.93;;;9.50;99.90;;;8.46;100.00;96823.72;5070852;28;20403;-80
2022/10/01 07:17:14;;;;;;;4.70;3.00;;;9.50;99.90;;;8.45;100.00;96822.13;5069006;28;20474;-80
2022/10/01 07:19:41;;;;;;;4.15;3.10;;;9.50;99.90;;;8.46;100.00;96827.16;5069956;28;20412;-80
2022/10/01 07:22:07;;;;;;;3.50;3.00;;;9.50;99.90;;;8.49;100.00;96828.50;5071173;28;20408;-79
2022/10/01 07:24:33;;;;;;;6.97;3.50;;;9.50;99.90;;;8.51;100.00;96818.47;5070741;28;20398;-79
2022/10/01 07:26:59;;;;;;;4.15;3.10;;;9.50;99.90;;;8.53;100.00;96795.28;5071104;28;20404;-80
2022/10/01 07:29:26;;;;;;;4.63;3.10;;;9.50;99.90;;;8.50;100.00;96809.75;5062410;28;20406;-81
2022/10/01 07:31:57;;;;;;;4.57;3.30;;;9.50;99.90;;;8.61;100.00;96813.28;5063608;28;20885;-79
2022/10/01 07:34:24;;;;;;;6.03;3.15;;;9.60;99.90;;;8.64;100.00;96810.16;5061243;28;20441;-83
2022/10/01 07:36:51;;;;;;;3.95;3.20;;;9.60;99.90;;;8.55;100.00;96798.47;5047831;28;20432;-83
2022/10/01 07:39:17;;;;;;;4.43;2.97;;;9.50;99.90;;;8.49;100.00;96810.03;5050870;28;20448;-83
2022/10/01 07:41:42;;;;;;;6.20;3.65;;;9.50;99.90;;;8.47;100.00;96796.31;5051275;28;20459;-82
2022/10/01 07:44:10;;;;;;;6.00;3.50;;;9.50;99.90;;;8.47;100.00;96798.94;5050407;28;20491;-81
2022/10/01 07:46:37;;;;;;;6.55;3.53;;;9.50;99.90;;;8.46;100.00;96794.72;5049707;28;20968;-81
2022/10/01 07:49:03;;;;;;;6.55;3.25;;;9.50;99.90;;;8.41;100.00;96794.69;5053855;28;20922;-81
2022/10/01 07:51:29;;;;;;;5.68;3.50;;;9.40;99.90;;;8.40;100.00;96812.34;5050911;28;20519;-81
2022/10/01 07:53:57;;;;;;;7.20;3.80;;;9.40;99.90;;;8.43;100.00;96808.38;5050224;28;20421;-83
2022/10/01 07:56:24;;;;;;;9.32;4.03;;;9.40;99.90;;;8.42;100.00;96789.13;5050774;28;20401;-81
2022/10/01 07:58:54;;;;;;;8.15;4.10;;;9.40;99.90;;;8.57;100.00;96806.16;5050967;28;20412;-81
2022/10/01 08:01:20;;;;;;;7.45;3.97;;;9.50;99.90;;;8.54;100.00;96820.63;5051347;28;20491;-81
2022/10/01 08:03:48;;;;;;;7.15;3.65;;;9.50;99.90;;;8.48;100.00;96808.44;5050077;28;20907;-80
2022/10/01 08:06:14;;;;;;;6.80;3.92;;;9.50;99.90;;;8.46;100.00;96806.06;5050780;28;20410;-82
2022/10/01 08:08:40;;;;;;;8.10;4.00;;;9.50;99.90;;;8.48;100.00;96803.97;5050536;28;20871;-82
2022/10/01 08:11:09;;;;;;;6.90;3.90;;;9.50;99.90;;;8.41;100.00;96813.13;5050562;28;20454;-83
2022/10/01 08:13:35;;;;;;;7.15;4.00;;;9.40;99.90;;;8.37;100.00;96802.28;5049859;28;20431;-81
2022/10/01 08:16:04;;;;;;;9.00;4.35;;;9.40;99.90;;;8.37;100.00;96793.56;5050368;28;20411;-82
2022/10/01 08:18:31;;;;;;;6.15;4.10;;;9.40;99.90;;;8.44;100.00;96802.06;5050368;28;20476;-81
2022/10/01 08:20:58;;;;;;;10.98;4.45;;;9.40;99.90;;;8.42;100.00;96804.19;5050212;28;20413;-81
2022/10/01 08:23:24;;;;;;;8.13;4.25;;;9.40;99.90;;;8.38;100.00;96811.78;5046664;28;20851;-84
2022/10/01 08:25:50;;;;;;;16.17;4.40;;;9.40;99.90;;;8.36;100.00;96807.81;5044037;28;20563;-80
2022/10/01 08:28:18;;;;;;;7.28;3.92;;;9.40;99.90;;;8.38;100.00;96797.81;5049620;28;20997;-78
2022/10/01 08:30:44;;;;;;;7.68;4.35;;;9.40;99.90;;;8.43;100.00;96806.53;5050282;28;20504;-77
2022/10/01 08:33:12;;;;;;;9.57;4.55;;;9.40;99.90;;;8.50;100.00;96816.88;5049752;28;21006;-78
2022/10/01 08:35:39;;;;;;;9.57;4.57;;;9.50;99.90;;;8.57;100.00;96814.06;5050237;28;20755;-78
2022/10/01 08:38:05;;;;;;;8.75;4.15;;;9.50;99.90;;;8.55;100.00;96822.22;5050296;28;20428;-76
2022/10/01 08:40:37;;;;;;;8.25;4.22;;;9.50;99.90;;;8.56;100.00;96821.19;5050030;28;20493;-77
2022/10/01 08:43:06;;;;;;;9.23;4.30;;;9.60;99.90;;;8.54;100.00;96823.25;5049500;28;20421;-84
2022/10/01 08:45:43;;;;;;;8.05;4.30;;;9.50;99.90;;;8.58;100.00;96828.81;5050352;28;20432;-81
2022/10/01 08:48:18;;;;;;;7.43;4.15;;;9.60;99.90;;;8.63;100.00;96828.88;5044629;28;20421;-77
2022/10/01 08:50:51;;;;;;;9.43;3.85;;;9.60;99.90;;;8.64;100.00;96835.75;5048925;28;20767;-79
2022/10/01 08:53:28;;;;;;;5.35;4.07;;;9.60;99.90;;;8.67;100.00;96841.31;5047105;28;20413;-78
2022/10/01 08:55:56;;;;;;;10.85;4.90;;;9.60;99.90;;;8.61;100.00;96837.03;5048864;28;20405;-78
2022/10/01 08:58:28;;;;;;;10.85;4.40;;;9.60;99.90;;;8.63;100.00;96834.16;5047072;28;20498;-84
2022/10/01 09:00:55;;;;;;;6.95;4.30;;;9.60;99.90;;;8.71;100.00;96831.06;5042941;28;20389;-83
2022/10/01 09:03:21;;;;;;;8.13;4.50;;;9.70;99.90;;;8.68;100.00;96826.28;5064792;22;20779;31
2022/10/01 09:06:02;;;;;;;6.72;4.25;;;9.80;99.90;;;8.81;100.00;96837.19;5066996;28;20486;-72
2022/10/01 09:08:45;;;;;;;6.87;3.83;;;9.80;99.90;;;8.82;100.00;96841.41;5067964;28;20475;-73
2022/10/01 09:11:31;;;;;;;6.47;4.03;;;9.80;99.90;;;8.90;100.00;96846.22;5058981;28;20486;-73
2022/10/01 09:14:47;;;;;;;6.75;4.18;;;9.80;99.90;;;8.94;100.00;96849.19;5055501;28;20443;-72
2022/10/01 09:17:22;;;;;;;6.47;3.72;;;9.90;99.90;;;8.96;100.00;96847.06;5016371;28;20451;-73
2022/10/01 09:20:09;;;;;;;7.10;3.20;;;9.90;99.90;;;9.02;100.00;96859.22;5049514;28;20430;-73
2022/10/01 09:22:39;;;;;;;4.20;2.95;;;10.00;99.90;;;9.09;100.00;96861.69;5079781;28;20593;-73
2022/10/01 09:25:16;;;;;;;5.00;3.10;;;10.00;99.90;;;9.05;100.00;96853.47;5083109;28;20883;-73
2022/10/01 09:27:42;;;;;;;5.28;2.95;;;10.00;99.90;;;9.16;100.00;96849.84;5064628;28;20407;-73
2022/10/01 09:30:15;;;;;;;3.67;3.00;;;10.00;99.90;;;9.15;100.00;96853.53;5051010;28;20411;-73
2022/10/01 09:32:49;;;;;;;5.85;2.85;;;10.10;99.90;;;9.11;100.00;96851.66;5058733;28;20420;-73
2022/10/01 09:35:34;;;;;;;6.07;2.90;;;10.10;99.90;;;9.08;100.00;96849.53;5057465;28;20419;-73
2022/10/01 09:38:08;;;;;;;5.65;3.00;;;10.00;99.90;;;9.14;100.00;96857.22;5061112;28;20916;-73
2022/10/01 09:40:38;;;;;;;5.82;2.67;;;10.10;99.90;;;9.08;100.00;96862.72;5060006;28;20785;-72
2022/10/01 09:43:07;;;;;;;4.38;2.72;;;10.00;99.90;;;9.17;100.00;96861.97;5069630;28;20400;-73
2022/10/01 09:45:34;;;;;;;4.43;2.55;;;10.10;99.90;;;9.14;100.00;96851.16;5063765;28;20418;-73
2022/10/01 09:48:15;;;;;;;5.95;2.75;;;10.10;99.90;;;9.10;100.00;96868.53;5072568;28;20398;-72
2022/10/01 09:50:54;;;;;;;6.63;2.88;;;10.10;99.90;;;9.09;100.00;96859.03;5072832;28;20396;-73
2022/10/01 09:53:29;;;;;;;6.70;2.80;;;10.10;99.90;;;9.12;100.00;96863.81;5072087;28;20512;-73
2022/10/01 09:56:01;;;;;;;6.78;2.72;;;10.10;99.90;;;9.10;100.00;96866.69;5072763;28;20403;-73
2022/10/01 09:58:29;;;;;;;5.18;2.78;;;10.10;99.90;;;9.13;100.00;96863.56;5072635;28;20445;-73
2022/10/01 10:00:55;;;;;;;5.53;2.70;;;10.10;99.90;;;9.19;100.00;96859.88;5053104;28;20812;-73
2022/10/01 10:03:27;;;;;;;6.25;2.50;;;10.10;99.90;;;9.26;100.00;96859.66;5052745;28;20427;-73
2022/10/01 10:05:53;;;;;;;6.05;2.40;;;10.20;99.90;;;9.23;100.00;96876.03;5071327;28;20408;-73
2022/10/01 10:08:26;;;;;;;4.13;2.25;;;10.20;99.90;;;9.26;100.00;96873.66;5072519;28;20403;-73
2022/10/01 10:10:59;;;;;;;4.40;2.55;;;10.20;99.90;;;9.33;100.00;96876.88;5054649;28;20776;-74
2022/10/01 10:13:33;;;;;;;3.67;2.20;;;10.20;99.90;;;9.46;100.00;96874.84;5072059;28;20419;-73
2022/10/01 10:16:07;;;;;;;4.75;2.30;;;10.30;99.90;;;9.48;100.00;96878.81;5054544;28;20412;-73
2022/10/01 10:18:37;;;;;;;3.60;2.10;;;10.40;99.90;;;9.47;100.00;96877.22;5072482;28;20815;-73
2022/10/01 10:21:11;;;;;;;3.83;1.90;;;10.40;99.90;;;9.49;100.00;96884.88;5072431;28;20895;-73
2022/10/01 10:23:48;;;;;;;2.55;1.90;;;10.50;99.90;;;9.50;100.00;96879.34;5071797;28;20430;-72
2022/10/01 10:26:20;;;;;;;2.70;1.80;;;10.50;99.90;;;9.62;100.00;96885.22;5072423;28;20411;-73
2022/10/01 10:28:46;;;;;;;2.28;1.88;;;10.50;99.90;;;9.64;100.00;96891.06;5072310;28;20827;-73
2022/10/01 10:31:15;;;;;;;3.13;1.90;;;10.50;99.90;;;9.64;100.00;96890.25;5072289;28;20400;-73
2022/10/01 10:33:50;;;;;;;4.03;1.92;;;10.60;99.90;;;9.60;100.00;96879.41;5071608;28;20982;-73